sensor_id;sensor_type;location;lat;lon;timestamp;pressure;altitude;pressure_sealevel;temperature;humidity
40948;BME280;49382;-25.924;28.194;2023-04-01T00:02:15;85337.61;;;17.23;42.34
40948;BME280;49382;-25.924;28.194;2023-04-01T00:04:41;85333.71;;;17.53;42.06
40948;BME280;49382;-25.924;28.194;2023-04-01T00:07:06;85332.52;;;17.97;41.27
40948;BME280;49382;-25.924;28.194;2023-04-01T00:09:31;85336.60;;;18.39;40.75
40948;BME280;49382;-25.924;28.194;2023-04-01T00:11:56;85336.58;;;18.18;41.03
40948;BME280;49382;-25.924;28.194;2023-04-01T00:14:21;85335.02;;;17.78;41.73
40948;BME280;49382;-25.924;28.194;2023-04-01T00:16:46;85340.04;;;18.53;40.55
40948;BME280;49382;-25.924;28.194;2023-04-01T00:19:11;85344.21;;;18.68;40.27
40948;BME280;49382;-25.924;28.194;2023-04-01T00:21:36;85344.11;;;18.35;40.58
40948;BME280;49382;-25.924;28.194;2023-04-01T00:24:02;85341.05;;;18.47;41.18
40948;BME280;49382;-25.924;28.194;2023-04-01T00:26:27;85340.09;;;18.72;40.81
40948;BME280;49382;-25.924;28.194;2023-04-01T00:28:52;85344.17;;;18.69;40.70
40948;BME280;49382;-25.924;28.194;2023-04-01T00:31:17;85343.54;;;18.64;40.64
40948;BME280;49382;-25.924;28.194;2023-04-01T00:33:42;85346.26;;;18.57;41.14
40948;BME280;49382;-25.924;28.194;2023-04-01T00:36:09;85354.31;;;17.73;41.44
40948;BME280;49382;-25.924;28.194;2023-04-01T00:38:32;85358.11;;;17.79;41.43
40948;BME280;49382;-25.924;28.194;2023-04-01T00:40:58;85353.68;;;17.95;41.84
40948;BME280;49382;-25.924;28.194;2023-04-01T00:43:22;85353.45;;;17.98;42.19
40948;BME280;49382;-25.924;28.194;2023-04-01T00:45:48;85354.24;;;18.18;41.78
40948;BME280;49382;-25.924;28.194;2023-04-01T00:48:16;85351.39;;;18.17;42.20
40948;BME280;49382;-25.924;28.194;2023-04-01T00:50:38;85350.58;;;18.52;41.57
40948;BME280;49382;-25.924;28.194;2023-04-01T00:53:03;85345.06;;;18.23;42.39
40948;BME280;49382;-25.924;28.194;2023-04-01T00:55:29;85343.42;;;17.95;42.26
40948;BME280;49382;-25.924;28.194;2023-04-01T00:57:54;85344.80;;;18.31;41.72
40948;BME280;49382;-25.924;28.194;2023-04-01T01:00:18;85341.53;;;18.46;41.33
40948;BME280;49382;-25.924;28.194;2023-04-01T01:02:44;85337.27;;;17.83;41.89
40948;BME280;49382;-25.924;28.194;2023-04-01T01:05:08;85337.64;;;17.44;42.42
40948;BME280;49382;-25.924;28.194;2023-04-01T01:07:38;85336.84;;;17.81;41.99
40948;BME280;49382;-25.924;28.194;2023-04-01T01:10:04;85335.47;;;17.95;41.91
40948;BME280;49382;-25.924;28.194;2023-04-01T01:12:28;85333.08;;;17.95;41.80
40948;BME280;49382;-25.924;28.194;2023-04-01T01:14:55;85333.72;;;18.31;41.54
40948;BME280;49382;-25.924;28.194;2023-04-01T01:17:21;85331.36;;;17.75;42.43
40948;BME280;49382;-25.924;28.194;2023-04-01T01:20:00;85332.33;;;17.85;42.05
40948;BME280;49382;-25.924;28.194;2023-04-01T01:22:16;85333.09;;;17.90;41.85
40948;BME280;49382;-25.924;28.194;2023-04-01T01:24:41;85335.99;;;18.01;41.61
40948;BME280;49382;-25.924;28.194;2023-04-01T01:27:00;85340.62;;;18.04;41.48
40948;BME280;49382;-25.924;28.194;2023-04-01T01:31:50;85337.74;;;18.29;41.14
40948;BME280;49382;-25.924;28.194;2023-04-01T01:34:17;85338.64;;;18.10;40.82
40948;BME280;49382;-25.924;28.194;2023-04-01T01:36:35;85339.02;;;18.32;40.75
40948;BME280;49382;-25.924;28.194;2023-04-01T01:39:00;85337.03;;;18.19;40.49
40948;BME280;49382;-25.924;28.194;2023-04-01T01:41:26;85333.87;;;17.48;41.40
40948;BME280;49382;-25.924;28.194;2023-04-01T01:43:52;85332.24;;;16.87;42.69
40948;BME280;49382;-25.924;28.194;2023-04-01T01:46:21;85335.69;;;18.23;40.35
40948;BME280;49382;-25.924;28.194;2023-04-01T01:48:42;85336.56;;;18.50;40.21
40948;BME280;49382;-25.924;28.194;2023-04-01T01:51:07;85334.93;;;18.59;40.01
40948;BME280;49382;-25.924;28.194;2023-04-01T01:53:32;85333.43;;;18.26;40.48
40948;BME280;49382;-25.924;28.194;2023-04-01T01:55:57;85334.72;;;18.12;40.62
40948;BME280;49382;-25.924;28.194;2023-04-01T01:58:25;85331.88;;;18.28;40.27
40948;BME280;49382;-25.924;28.194;2023-04-01T02:00:50;85327.38;;;18.27;40.22
40948;BME280;49382;-25.924;28.194;2023-04-01T02:03:13;85327.84;;;18.38;40.14
40948;BME280;49382;-25.924;28.194;2023-04-01T02:05:38;85328.09;;;17.41;41.43
40948;BME280;49382;-25.924;28.194;2023-04-01T02:08:06;85325.17;;;17.69;40.53
40948;BME280;49382;-25.924;28.194;2023-04-01T02:10:29;85325.89;;;17.97;40.32
40948;BME280;49382;-25.924;28.194;2023-04-01T02:12:55;85324.29;;;17.61;40.93
40948;BME280;49382;-25.924;28.194;2023-04-01T02:15:19;85321.58;;;17.90;40.95
40948;BME280;49382;-25.924;28.194;2023-04-01T02:17:45;85318.33;;;17.27;41.47
40948;BME280;49382;-25.924;28.194;2023-04-01T02:20:12;85317.89;;;17.95;40.97
40948;BME280;49382;-25.924;28.194;2023-04-01T02:22:36;85320.97;;;17.71;41.26
40948;BME280;49382;-25.924;28.194;2023-04-01T02:25:02;85322.75;;;17.73;41.29
40948;BME280;49382;-25.924;28.194;2023-04-01T02:27:25;85323.76;;;18.17;40.67
40948;BME280;49382;-25.924;28.194;2023-04-01T02:29:50;85324.03;;;17.73;41.20
40948;BME280;49382;-25.924;28.194;2023-04-01T02:32:15;85326.84;;;18.20;40.41
40948;BME280;49382;-25.924;28.194;2023-04-01T02:34:40;85329.51;;;18.48;40.28
40948;BME280;49382;-25.924;28.194;2023-04-01T02:37:06;85332.70;;;18.23;40.32
40948;BME280;49382;-25.924;28.194;2023-04-01T02:39:31;85341.71;;;18.22;40.35
40948;BME280;49382;-25.924;28.194;2023-04-01T02:41:56;85346.38;;;18.40;39.98
40948;BME280;49382;-25.924;28.194;2023-04-01T02:44:22;85349.13;;;18.47;40.13
40948;BME280;49382;-25.924;28.194;2023-04-01T02:46:46;85349.02;;;17.96;40.66
40948;BME280;49382;-25.924;28.194;2023-04-01T02:49:11;85352.73;;;18.07;40.28
40948;BME280;49382;-25.924;28.194;2023-04-01T02:51:37;85360.42;;;18.48;39.93
40948;BME280;49382;-25.924;28.194;2023-04-01T02:54:03;85360.09;;;18.09;40.41
40948;BME280;49382;-25.924;28.194;2023-04-01T02:56:28;85362.82;;;18.70;39.76
40948;BME280;49382;-25.924;28.194;2023-04-01T02:58:54;85363.19;;;18.79;39.17
40948;BME280;49382;-25.924;28.194;2023-04-01T03:01:19;85362.91;;;18.55;39.78
40948;BME280;49382;-25.924;28.194;2023-04-01T03:03:44;85365.73;;;18.47;39.69
40948;BME280;49382;-25.924;28.194;2023-04-01T03:06:11;85365.49;;;18.13;40.77
40948;BME280;49382;-25.924;28.194;2023-04-01T03:08:35;85367.39;;;18.09;41.09
40948;BME280;49382;-25.924;28.194;2023-04-01T03:11:00;85372.90;;;18.08;40.78
40948;BME280;49382;-25.924;28.194;2023-04-01T03:13:25;85372.65;;;18.17;41.28
40948;BME280;49382;-25.924;28.194;2023-04-01T03:15:50;85372.60;;;17.97;41.47
40948;BME280;49382;-25.924;28.194;2023-04-01T03:18:15;85375.60;;;18.48;41.16
40948;BME280;49382;-25.924;28.194;2023-04-01T03:20:40;85379.83;;;18.48;40.75
40948;BME280;49382;-25.924;28.194;2023-04-01T03:23:06;85377.73;;;18.23;41.05
40948;BME280;49382;-25.924;28.194;2023-04-01T03:25:31;85377.33;;;18.17;40.57
40948;BME280;49382;-25.924;28.194;2023-04-01T03:27:56;85381.58;;;18.55;40.16
40948;BME280;49382;-25.924;28.194;2023-04-01T03:30:21;85379.61;;;18.02;40.11
40948;BME280;49382;-25.924;28.194;2023-04-01T03:32:46;85381.26;;;18.44;39.84
40948;BME280;49382;-25.924;28.194;2023-04-01T03:35:11;85383.03;;;18.46;39.65
40948;BME280;49382;-25.924;28.194;2023-04-01T03:37:37;85386.66;;;18.44;39.90
40948;BME280;49382;-25.924;28.194;2023-04-01T03:40:03;85388.47;;;18.25;40.23
40948;BME280;49382;-25.924;28.194;2023-04-01T03:42:27;85388.88;;;17.96;40.50
40948;BME280;49382;-25.924;28.194;2023-04-01T03:44:52;85390.12;;;17.96;40.46
40948;BME280;49382;-25.924;28.194;2023-04-01T03:47:17;85392.53;;;18.04;39.90
40948;BME280;49382;-25.924;28.194;2023-04-01T03:49:42;85394.93;;;18.06;40.35
40948;BME280;49382;-25.924;28.194;2023-04-01T03:52:10;85399.48;;;17.59;40.52
40948;BME280;49382;-25.924;28.194;2023-04-01T03:54:32;85406.40;;;17.54;40.68
40948;BME280;49382;-25.924;28.194;2023-04-01T03:56:57;85407.49;;;17.27;41.03
40948;BME280;49382;-25.924;28.194;2023-04-01T03:59:22;85409.28;;;17.59;41.17
40948;BME280;49382;-25.924;28.194;2023-04-01T04:01:47;85411.57;;;17.60;41.21
40948;BME280;49382;-25.924;28.194;2023-04-01T04:04:13;85413.14;;;17.10;41.46
40948;BME280;49382;-25.924;28.194;2023-04-01T04:06:38;85411.43;;;17.00;41.42
40948;BME280;49382;-25.924;28.194;2023-04-01T04:09:04;85407.45;;;16.56;41.85
40948;BME280;49382;-25.924;28.194;2023-04-01T04:11:31;85413.06;;;16.59;42.67
40948;BME280;49382;-25.924;28.194;2023-04-01T04:13:54;85416.56;;;16.51;42.89
40948;BME280;49382;-25.924;28.194;2023-04-01T04:16:20;85415.46;;;16.36;42.47
40948;BME280;49382;-25.924;28.194;2023-04-01T04:18:44;85418.89;;;16.59;42.55
40948;BME280;49382;-25.924;28.194;2023-04-01T04:21:12;85421.23;;;16.15;43.73
40948;BME280;49382;-25.924;28.194;2023-04-01T04:23:34;85419.19;;;15.59;44.68
40948;BME280;49382;-25.924;28.194;2023-04-01T04:26:02;85420.89;;;16.19;43.04
40948;BME280;49382;-25.924;28.194;2023-04-01T04:28:25;85423.26;;;16.51;43.14
40948;BME280;49382;-25.924;28.194;2023-04-01T04:30:49;85425.06;;;16.05;43.87
40948;BME280;49382;-25.924;28.194;2023-04-01T04:33:14;85428.30;;;15.53;44.57
40948;BME280;49382;-25.924;28.194;2023-04-01T04:35:39;85432.50;;;16.09;43.87
40948;BME280;49382;-25.924;28.194;2023-04-01T04:38:04;85434.40;;;16.81;43.18
40948;BME280;49382;-25.924;28.194;2023-04-01T04:40:29;85436.96;;;16.24;44.22
40948;BME280;49382;-25.924;28.194;2023-04-01T04:42:55;85436.96;;;16.77;43.36
40948;BME280;49382;-25.924;28.194;2023-04-01T04:45:19;85440.39;;;15.90;44.70
40948;BME280;49382;-25.924;28.194;2023-04-01T04:47:45;85446.37;;;16.58;44.22
40948;BME280;49382;-25.924;28.194;2023-04-01T04:50:10;85447.51;;;16.89;43.53
40948;BME280;49382;-25.924;28.194;2023-04-01T04:52:35;85449.75;;;17.00;43.34
40948;BME280;49382;-25.924;28.194;2023-04-01T04:55:00;85456.30;;;16.80;43.49
40948;BME280;49382;-25.924;28.194;2023-04-01T04:57:25;85457.88;;;16.30;44.48
40948;BME280;49382;-25.924;28.194;2023-04-01T04:59:51;85466.23;;;16.98;45.10
40948;BME280;49382;-25.924;28.194;2023-04-01T05:02:16;85468.71;;;17.33;44.13
40948;BME280;49382;-25.924;28.194;2023-04-01T05:04:41;85471.85;;;17.64;44.05
40948;BME280;49382;-25.924;28.194;2023-04-01T05:07:06;85472.39;;;17.26;44.09
40948;BME280;49382;-25.924;28.194;2023-04-01T05:09:32;85473.20;;;17.77;43.96
40948;BME280;49382;-25.924;28.194;2023-04-01T05:11:57;85476.27;;;17.80;44.02
40948;BME280;49382;-25.924;28.194;2023-04-01T05:14:22;85479.95;;;17.28;44.62
40948;BME280;49382;-25.924;28.194;2023-04-01T05:16:47;85482.14;;;18.37;43.80
40948;BME280;49382;-25.924;28.194;2023-04-01T05:19:13;85481.95;;;18.11;41.84
40948;BME280;49382;-25.924;28.194;2023-04-01T05:21:37;85483.23;;;17.79;42.50
40948;BME280;49382;-25.924;28.194;2023-04-01T05:24:06;85482.55;;;17.50;43.34
40948;BME280;49382;-25.924;28.194;2023-04-01T05:26:29;85487.70;;;17.90;43.32
40948;BME280;49382;-25.924;28.194;2023-04-01T05:28:55;85486.13;;;17.28;43.64
40948;BME280;49382;-25.924;28.194;2023-04-01T05:31:21;85488.08;;;17.81;43.46
40948;BME280;49382;-25.924;28.194;2023-04-01T05:33:47;85487.45;;;17.23;45.43
40948;BME280;49382;-25.924;28.194;2023-04-01T05:36:14;85491.09;;;18.03;43.80
40948;BME280;49382;-25.924;28.194;2023-04-01T05:38:39;85493.84;;;18.22;42.82
40948;BME280;49382;-25.924;28.194;2023-04-01T05:41:04;85494.82;;;17.93;42.91
40948;BME280;49382;-25.924;28.194;2023-04-01T05:43:30;85494.53;;;18.12;43.59
40948;BME280;49382;-25.924;28.194;2023-04-01T05:45:56;85492.04;;;17.27;44.32
40948;BME280;49382;-25.924;28.194;2023-04-01T05:48:22;85497.94;;;17.76;44.23
40948;BME280;49382;-25.924;28.194;2023-04-01T05:50:48;85504.94;;;18.39;43.51
40948;BME280;49382;-25.924;28.194;2023-04-01T05:53:13;85502.17;;;17.63;44.52
40948;BME280;49382;-25.924;28.194;2023-04-01T05:55:39;85507.51;;;18.77;42.56
40948;BME280;49382;-25.924;28.194;2023-04-01T05:58:05;85507.47;;;17.10;45.11
40948;BME280;49382;-25.924;28.194;2023-04-01T06:00:31;85510.73;;;17.30;45.06
40948;BME280;49382;-25.924;28.194;2023-04-01T06:02:59;85513.77;;;17.99;44.39
40948;BME280;49382;-25.924;28.194;2023-04-01T06:05:25;85516.67;;;17.56;44.71
40948;BME280;49382;-25.924;28.194;2023-04-01T06:07:48;85521.25;;;17.83;44.85
40948;BME280;49382;-25.924;28.194;2023-04-01T06:10:17;85519.74;;;18.45;42.83
40948;BME280;49382;-25.924;28.194;2023-04-01T06:12:48;85523.75;;;18.29;44.50
40948;BME280;49382;-25.924;28.194;2023-04-01T06:15:17;85523.52;;;18.89;42.94
40948;BME280;49382;-25.924;28.194;2023-04-01T06:17:43;85525.31;;;19.18;43.35
40948;BME280;49382;-25.924;28.194;2023-04-01T06:20:04;85526.95;;;19.48;43.70
40948;BME280;49382;-25.924;28.194;2023-04-01T06:22:33;85532.87;;;18.76;45.07
40948;BME280;49382;-25.924;28.194;2023-04-01T06:24:59;85536.73;;;18.46;44.01
40948;BME280;49382;-25.924;28.194;2023-04-01T06:27:36;85543.87;;;19.21;44.82
40948;BME280;49382;-25.924;28.194;2023-04-01T06:29:49;85544.28;;;18.60;44.20
40948;BME280;49382;-25.924;28.194;2023-04-01T06:32:18;85547.64;;;19.57;43.83
40948;BME280;49382;-25.924;28.194;2023-04-01T06:34:44;85546.39;;;19.89;42.67
40948;BME280;49382;-25.924;28.194;2023-04-01T06:37:09;85548.80;;;19.97;43.74
40948;BME280;49382;-25.924;28.194;2023-04-01T06:39:35;85547.11;;;19.54;42.80
40948;BME280;49382;-25.924;28.194;2023-04-01T06:44:22;85545.72;;;19.33;43.54
40948;BME280;49382;-25.924;28.194;2023-04-01T06:46:45;85548.10;;;19.62;44.60
40948;BME280;49382;-25.924;28.194;2023-04-01T06:49:20;85549.45;;;19.37;44.93
40948;BME280;49382;-25.924;28.194;2023-04-01T06:51:41;85544.23;;;19.44;44.91
40948;BME280;49382;-25.924;28.194;2023-04-01T06:54:04;85546.73;;;19.76;44.30
40948;BME280;49382;-25.924;28.194;2023-04-01T06:56:27;85546.42;;;19.16;45.16
40948;BME280;49382;-25.924;28.194;2023-04-01T06:58:53;85544.57;;;20.03;42.24
40948;BME280;49382;-25.924;28.194;2023-04-01T07:01:20;85543.05;;;20.90;41.21
40948;BME280;49382;-25.924;28.194;2023-04-01T07:03:47;85548.47;;;20.54;42.18
40948;BME280;49382;-25.924;28.194;2023-04-01T07:06:12;85549.46;;;20.83;41.84
40948;BME280;49382;-25.924;28.194;2023-04-01T07:08:38;85551.64;;;21.68;41.02
40948;BME280;49382;-25.924;28.194;2023-04-01T07:11:03;85554.18;;;21.10;41.07
40948;BME280;49382;-25.924;28.194;2023-04-01T07:13:29;85554.72;;;20.88;39.31
40948;BME280;49382;-25.924;28.194;2023-04-01T07:15:59;85558.64;;;21.44;39.49
40948;BME280;49382;-25.924;28.194;2023-04-01T07:18:19;85560.65;;;20.99;41.41
40948;BME280;49382;-25.924;28.194;2023-04-01T07:20:42;85559.88;;;21.44;39.40
40948;BME280;49382;-25.924;28.194;2023-04-01T07:23:16;85562.10;;;21.79;39.49
40948;BME280;49382;-25.924;28.194;2023-04-01T07:25:37;85565.40;;;22.08;38.74
40948;BME280;49382;-25.924;28.194;2023-04-01T07:28:02;85559.47;;;22.33;39.79
40948;BME280;49382;-25.924;28.194;2023-04-01T07:30:30;85558.40;;;21.73;40.40
40948;BME280;49382;-25.924;28.194;2023-04-01T07:32:54;85560.17;;;21.43;40.12
40948;BME280;49382;-25.924;28.194;2023-04-01T07:35:24;85558.69;;;20.94;42.77
40948;BME280;49382;-25.924;28.194;2023-04-01T07:37:50;85556.49;;;22.63;39.53
40948;BME280;49382;-25.924;28.194;2023-04-01T07:40:18;85556.21;;;22.59;39.39
40948;BME280;49382;-25.924;28.194;2023-04-01T07:42:44;85552.77;;;21.41;39.54
40948;BME280;49382;-25.924;28.194;2023-04-01T07:45:07;85552.29;;;22.76;37.25
40948;BME280;49382;-25.924;28.194;2023-04-01T07:47:36;85552.22;;;23.35;38.65
40948;BME280;49382;-25.924;28.194;2023-04-01T07:50:02;85553.58;;;22.37;39.13
40948;BME280;49382;-25.924;28.194;2023-04-01T07:52:21;85553.84;;;22.82;39.42
40948;BME280;49382;-25.924;28.194;2023-04-01T07:54:47;85555.51;;;23.49;39.40
40948;BME280;49382;-25.924;28.194;2023-04-01T07:57:14;85554.64;;;23.31;36.81
40948;BME280;49382;-25.924;28.194;2023-04-01T07:59:42;85552.58;;;22.60;40.05
40948;BME280;49382;-25.924;28.194;2023-04-01T08:02:08;85552.43;;;23.67;38.31
40948;BME280;49382;-25.924;28.194;2023-04-01T08:04:37;85548.49;;;23.30;36.98
40948;BME280;49382;-25.924;28.194;2023-04-01T08:06:57;85545.04;;;22.65;36.88
40948;BME280;49382;-25.924;28.194;2023-04-01T08:09:24;85546.52;;;23.32;38.70
40948;BME280;49382;-25.924;28.194;2023-04-01T08:11:53;85545.96;;;24.21;35.96
40948;BME280;49382;-25.924;28.194;2023-04-01T08:14:16;85544.35;;;23.89;36.78
40948;BME280;49382;-25.924;28.194;2023-04-01T08:16:41;85539.79;;;22.76;37.77
40948;BME280;49382;-25.924;28.194;2023-04-01T08:19:09;85540.95;;;22.11;37.63
40948;BME280;49382;-25.924;28.194;2023-04-01T08:21:30;85543.09;;;23.34;37.10
40948;BME280;49382;-25.924;28.194;2023-04-01T08:23:54;85541.65;;;24.44;36.29
40948;BME280;49382;-25.924;28.194;2023-04-01T08:26:23;85539.68;;;25.61;34.84
40948;BME280;49382;-25.924;28.194;2023-04-01T08:28:48;85536.61;;;24.97;34.69
40948;BME280;49382;-25.924;28.194;2023-04-01T08:31:12;85535.85;;;23.95;38.70
40948;BME280;49382;-25.924;28.194;2023-04-01T08:33:36;85534.51;;;25.58;35.23
40948;BME280;49382;-25.924;28.194;2023-04-01T08:36:06;85535.02;;;25.53;36.10
40948;BME280;49382;-25.924;28.194;2023-04-01T08:38:31;85537.78;;;25.25;34.55
40948;BME280;49382;-25.924;28.194;2023-04-01T08:41:00;85532.54;;;24.78;34.71
40948;BME280;49382;-25.924;28.194;2023-04-01T08:43:23;85525.99;;;26.04;34.08
40948;BME280;49382;-25.924;28.194;2023-04-01T08:45:55;85524.24;;;26.36;32.61
40948;BME280;49382;-25.924;28.194;2023-04-01T08:48:23;85525.06;;;24.60;35.62
40948;BME280;49382;-25.924;28.194;2023-04-01T08:53:07;85521.72;;;25.04;35.45
40948;BME280;49382;-25.924;28.194;2023-04-01T08:55:34;85513.67;;;25.64;35.75
40948;BME280;49382;-25.924;28.194;2023-04-01T08:58:04;85512.80;;;24.13;34.98
40948;BME280;49382;-25.924;28.194;2023-04-01T09:00:25;85510.59;;;26.35;33.91
40948;BME280;49382;-25.924;28.194;2023-04-01T09:02:54;85506.89;;;25.43;34.87
40948;BME280;49382;-25.924;28.194;2023-04-01T09:07:42;85501.84;;;24.93;36.51
40948;BME280;49382;-25.924;28.194;2023-04-01T09:12:38;85501.06;;;24.00;38.98
40948;BME280;49382;-25.924;28.194;2023-04-01T09:19:55;85486.99;;;24.90;36.88
40948;BME280;49382;-25.924;28.194;2023-04-01T09:24:44;85481.29;;;25.93;35.63
40948;BME280;49382;-25.924;28.194;2023-04-01T09:27:05;85482.77;;;25.75;38.74
40948;BME280;49382;-25.924;28.194;2023-04-01T09:29:38;85479.13;;;24.57;36.17
40948;BME280;49382;-25.924;28.194;2023-04-01T09:32:07;85478.32;;;25.06;35.55
40948;BME280;49382;-25.924;28.194;2023-04-01T09:34:26;85474.04;;;25.16;36.32
40948;BME280;49382;-25.924;28.194;2023-04-01T09:36:45;85470.94;;;25.07;33.22
40948;BME280;49382;-25.924;28.194;2023-04-01T09:39:25;85468.82;;;26.15;33.58
40948;BME280;49382;-25.924;28.194;2023-04-01T09:41:39;85466.00;;;25.09;36.30
40948;BME280;49382;-25.924;28.194;2023-04-01T09:44:03;85460.39;;;25.93;36.24
40948;BME280;49382;-25.924;28.194;2023-04-01T09:46:35;85459.40;;;24.47;34.83
40948;BME280;49382;-25.924;28.194;2023-04-01T09:49:04;85458.22;;;25.41;36.39
40948;BME280;49382;-25.924;28.194;2023-04-01T09:51:27;85454.57;;;25.92;34.41
40948;BME280;49382;-25.924;28.194;2023-04-01T09:53:54;85451.98;;;24.58;36.51
40948;BME280;49382;-25.924;28.194;2023-04-01T10:01:10;85448.83;;;24.92;35.22
40948;BME280;49382;-25.924;28.194;2023-04-01T10:08:30;85444.71;;;23.90;36.44
40948;BME280;49382;-25.924;28.194;2023-04-01T10:15:46;85434.75;;;24.45;35.29
40948;BME280;49382;-25.924;28.194;2023-04-01T10:18:17;85433.43;;;25.39;34.68
40948;BME280;49382;-25.924;28.194;2023-04-01T10:20:38;85428.39;;;24.04;33.66
40948;BME280;49382;-25.924;28.194;2023-04-01T10:23:00;85427.65;;;24.86;34.70
40948;BME280;49382;-25.924;28.194;2023-04-01T10:25:29;85427.05;;;25.62;33.08
40948;BME280;49382;-25.924;28.194;2023-04-01T10:37:36;85425.71;;;26.59;33.49
40948;BME280;49382;-25.924;28.194;2023-04-01T10:47:21;85413.10;;;23.33;33.64
40948;BME280;49382;-25.924;28.194;2023-04-01T10:56:56;85400.82;;;25.80;32.97
40948;BME280;49382;-25.924;28.194;2023-04-01T11:18:53;85381.03;;;25.58;32.77
40948;BME280;49382;-25.924;28.194;2023-04-01T11:26:07;85376.75;;;26.17;30.79
40948;BME280;49382;-25.924;28.194;2023-04-01T11:28:39;85368.98;;;25.84;31.53
40948;BME280;49382;-25.924;28.194;2023-04-01T11:31:03;85367.38;;;26.28;29.98
40948;BME280;49382;-25.924;28.194;2023-04-01T11:33:22;85368.29;;;26.60;29.04
40948;BME280;49382;-25.924;28.194;2023-04-01T11:35:55;85367.77;;;26.59;30.85
40948;BME280;49382;-25.924;28.194;2023-04-01T11:38:19;85368.47;;;26.60;30.47
40948;BME280;49382;-25.924;28.194;2023-04-01T11:40:40;85366.41;;;26.02;31.47
40948;BME280;49382;-25.924;28.194;2023-04-01T11:43:07;85360.65;;;27.12;30.69
40948;BME280;49382;-25.924;28.194;2023-04-01T11:45:35;85364.42;;;25.85;31.94
40948;BME280;49382;-25.924;28.194;2023-04-01T11:48:02;85358.52;;;25.18;31.34
40948;BME280;49382;-25.924;28.194;2023-04-01T11:50:26;85355.75;;;25.79;31.10
40948;BME280;49382;-25.924;28.194;2023-04-01T11:55:24;85360.30;;;26.00;30.70
40948;BME280;49382;-25.924;28.194;2023-04-01T12:02:36;85363.10;;;27.38;29.52
40948;BME280;49382;-25.924;28.194;2023-04-01T12:05:04;85360.39;;;27.32;27.76
40948;BME280;49382;-25.924;28.194;2023-04-01T12:07:27;85357.58;;;25.65;29.53
40948;BME280;49382;-25.924;28.194;2023-04-01T12:09:52;85356.48;;;26.99;28.03
40948;BME280;49382;-25.924;28.194;2023-04-01T12:12:19;85355.52;;;26.81;28.53
40948;BME280;49382;-25.924;28.194;2023-04-01T12:14:41;85355.13;;;26.27;28.63
40948;BME280;49382;-25.924;28.194;2023-04-01T12:17:09;85354.81;;;26.33;29.24
40948;BME280;49382;-25.924;28.194;2023-04-01T12:19:38;85352.79;;;27.46;29.33
40948;BME280;49382;-25.924;28.194;2023-04-01T12:24:32;85356.18;;;27.53;28.95
40948;BME280;49382;-25.924;28.194;2023-04-01T12:26:55;85358.60;;;27.38;28.17
40948;BME280;49382;-25.924;28.194;2023-04-01T12:29:21;85357.60;;;27.26;27.71
40948;BME280;49382;-25.924;28.194;2023-04-01T12:31:46;85351.35;;;27.07;28.31
40948;BME280;49382;-25.924;28.194;2023-04-01T12:36:37;85345.69;;;27.04;29.42
40948;BME280;49382;-25.924;28.194;2023-04-01T12:41:26;85346.99;;;26.63;28.77
40948;BME280;49382;-25.924;28.194;2023-04-01T12:44:00;85347.20;;;26.85;28.20
40948;BME280;49382;-25.924;28.194;2023-04-01T12:46:18;85347.86;;;26.83;29.47
40948;BME280;49382;-25.924;28.194;2023-04-01T12:48:54;85340.89;;;27.05;28.38
40948;BME280;49382;-25.924;28.194;2023-04-01T12:51:11;85342.32;;;26.22;29.60
40948;BME280;49382;-25.924;28.194;2023-04-01T12:53:36;85341.55;;;26.90;29.31
40948;BME280;49382;-25.924;28.194;2023-04-01T12:55:55;85342.65;;;25.22;29.45
40948;BME280;49382;-25.924;28.194;2023-04-01T12:58:34;85347.82;;;26.40;27.78
40948;BME280;49382;-25.924;28.194;2023-04-01T13:01:00;85344.94;;;26.48;27.62
40948;BME280;49382;-25.924;28.194;2023-04-01T13:03:24;85344.89;;;26.75;28.57
40948;BME280;49382;-25.924;28.194;2023-04-01T13:08:12;85338.48;;;24.34;31.08
40948;BME280;49382;-25.924;28.194;2023-04-01T13:10:41;85343.14;;;26.13;29.78
40948;BME280;49382;-25.924;28.194;2023-04-01T13:15:26;85335.61;;;26.97;28.68
40948;BME280;49382;-25.924;28.194;2023-04-01T13:17:52;85336.06;;;25.95;29.77
40948;BME280;49382;-25.924;28.194;2023-04-01T13:20:19;85338.85;;;27.35;28.68
40948;BME280;49382;-25.924;28.194;2023-04-01T13:22:49;85334.32;;;26.37;29.22
40948;BME280;49382;-25.924;28.194;2023-04-01T13:25:09;85332.98;;;25.17;30.72
40948;BME280;49382;-25.924;28.194;2023-04-01T13:27:33;85333.06;;;25.63;30.42
40948;BME280;49382;-25.924;28.194;2023-04-01T13:30:07;85329.18;;;25.75;29.48
40948;BME280;49382;-25.924;28.194;2023-04-01T13:32:28;85331.54;;;26.36;28.75
40948;BME280;49382;-25.924;28.194;2023-04-01T13:34:56;85331.48;;;26.06;28.42
40948;BME280;49382;-25.924;28.194;2023-04-01T13:37:20;85330.44;;;26.53;28.07
40948;BME280;49382;-25.924;28.194;2023-04-01T13:39:49;85328.32;;;26.08;28.65
40948;BME280;49382;-25.924;28.194;2023-04-01T13:42:14;85325.75;;;25.72;29.44
40948;BME280;49382;-25.924;28.194;2023-04-01T13:44:33;85329.20;;;24.98;29.83
40948;BME280;49382;-25.924;28.194;2023-04-01T13:56:47;85329.09;;;26.34;29.39
40948;BME280;49382;-25.924;28.194;2023-04-01T14:01:36;85327.73;;;24.14;31.83
40948;BME280;49382;-25.924;28.194;2023-04-01T14:06:28;85330.19;;;25.22;28.85
40948;BME280;49382;-25.924;28.194;2023-04-01T14:08:55;85330.78;;;26.01;28.66
40948;BME280;49382;-25.924;28.194;2023-04-01T14:11:19;85329.07;;;26.29;28.05
40948;BME280;49382;-25.924;28.194;2023-04-01T14:13:43;85328.90;;;25.61;28.65
40948;BME280;49382;-25.924;28.194;2023-04-01T14:16:14;85330.10;;;25.80;29.40
40948;BME280;49382;-25.924;28.194;2023-04-01T14:18:42;85331.78;;;25.82;29.19
40948;BME280;49382;-25.924;28.194;2023-04-01T14:21:05;85331.52;;;26.42;28.63
40948;BME280;49382;-25.924;28.194;2023-04-01T14:23:33;85330.82;;;26.18;28.49
40948;BME280;49382;-25.924;28.194;2023-04-01T14:26:00;85329.36;;;25.07;30.81
40948;BME280;49382;-25.924;28.194;2023-04-01T14:28:17;85328.76;;;25.12;30.07